Greenbrier Valley Airport
KLWB : now visible

Airfield :











YOU CAN JOIN US ON...

 
LOGIN :

Register | Disclaimer

   EN    FR    IT 

 









Legend :    VFR   Marginal VFR   IFR   Intensive IFR   Very Intensive IFR
Visi :
Ceiling :
>= 8 km
>= 3000ft
5 to 8 km
1000 to 3000 ft
1500m to 5 km
500 to 1000 ft
800 to 1500m
200 to 500 ft
< 800m
< 200 ft
Symbols :   Thunderstorms  Fog  Heavy snow  Heavy precipitations  Wind > 20 kt






- Airport Elevation : 2302 ft


KLWB - Greenbrier Valley

CURRENT METAR :
  • 282150Z 31014G27KT 7SM -RA SCT012 BKN019 OVC027 07/04 A2988

EXPIRED METARs :
  • 282050Z 26016G22KT 5SM RA BKN022 BKN030 OVC055 13/11 A2973
  • 281950Z 24009KT 7SM -RA SCT009 BKN013 OVC048 13/12 A2971
  • 281845Z 19007KT 7SM RA SCT019 BKN027 OVC050 12/12 A2970
  • 281746Z 22008KT 7SM RA SCT017 BKN042 OVC070 13/11 A2973

TAF KLWB
Valid from the 28 at 20:00 until the 29 at 18:00 UTC


281932Z 2820/2918 20012KT 5SM SHRA SCT012 OVC028
FM282100 29016G32KT 4SM -SHRA BR OVC012
FM290000 29017G31KT P6SM OVC035
FM290600 30010G24KT P6SM SCT040
FM291100 31010G18KT P6SM SKC
KZDC FIR / North America



MET'MAP, your aeronautical weather chart ! - Copyright ORBIFLY December 2007 - Disclaimer

ORBIFLY MET'MAP TEAM :

Programming & Development : Alexandra Zaïnal
Original concept : Baudouin d'Aumeries
Technical & hardware support : Manuel Goepfert
Assistance : Marc-Olivier Méhu




SOURCES & CREDITS :

   NOAA       Earth
Advisory